createdAt,value
2022-07-26T00:00:02.328Z,0.00
2022-07-26T00:01:02.413Z,0.00
2022-07-26T00:02:02.465Z,0.00
2022-07-26T00:03:02.454Z,0.00
2022-07-26T00:04:02.345Z,0.00
2022-07-26T00:05:02.349Z,0.00
2022-07-26T00:06:02.350Z,0.00
2022-07-26T00:07:02.337Z,0.00
2022-07-26T00:08:02.343Z,0.00
2022-07-26T00:09:02.347Z,0.00
2022-07-26T00:10:02.347Z,0.00
2022-07-26T00:11:07.168Z,0.00
2022-07-26T00:12:02.359Z,0.00
2022-07-26T00:13:02.352Z,0.00
2022-07-26T00:14:02.357Z,0.00
2022-07-26T00:15:02.358Z,0.00
2022-07-26T00:16:02.427Z,0.00
2022-07-26T00:17:02.358Z,0.00
2022-07-26T00:18:02.369Z,0.00
2022-07-26T00:19:02.374Z,0.00
2022-07-26T00:20:02.379Z,0.00
2022-07-26T00:21:02.380Z,0.00
2022-07-26T00:22:02.377Z,0.00
2022-07-26T00:23:02.381Z,0.00
2022-07-26T00:24:02.387Z,0.00
2022-07-26T00:25:02.380Z,0.00
2022-07-26T00:26:02.389Z,0.00
2022-07-26T00:27:02.377Z,0.00
2022-07-26T00:28:02.384Z,0.00
2022-07-26T00:29:02.397Z,0.00
2022-07-26T00:30:02.394Z,0.00
2022-07-26T00:31:02.455Z,0.00
2022-07-26T00:32:02.498Z,0.00
2022-07-26T00:33:02.393Z,0.00
2022-07-26T00:34:02.408Z,0.00
2022-07-26T00:35:02.397Z,0.00
2022-07-26T00:36:02.404Z,0.00
2022-07-26T00:37:02.409Z,0.00
2022-07-26T00:38:02.398Z,0.00
2022-07-26T00:39:02.411Z,0.00
2022-07-26T00:40:02.410Z,0.00
2022-07-26T00:41:02.405Z,0.00
2022-07-26T00:42:02.407Z,0.00
2022-07-26T00:43:02.423Z,0.00
2022-07-26T00:44:02.416Z,0.00
2022-07-26T00:45:02.423Z,0.00
2022-07-26T00:46:02.525Z,0.00
2022-07-26T00:47:02.432Z,0.00
2022-07-26T00:48:02.419Z,0.00
2022-07-26T00:49:02.504Z,0.00
2022-07-26T00:50:02.432Z,0.00
2022-07-26T00:51:02.435Z,0.00
2022-07-26T00:52:02.427Z,0.00
2022-07-26T00:53:02.460Z,0.00
2022-07-26T00:54:02.458Z,0.00
2022-07-26T00:55:02.507Z,0.00
2022-07-26T00:56:02.442Z,0.00
2022-07-26T00:57:02.441Z,0.00
2022-07-26T00:58:02.438Z,0.00
2022-07-26T00:59:02.441Z,0.00
2022-07-26T01:00:02.444Z,0.00
2022-07-26T01:01:02.587Z,0.00
2022-07-26T01:02:02.652Z,0.00
2022-07-26T01:03:02.469Z,0.00
2022-07-26T01:04:02.461Z,0.00
2022-07-26T01:05:02.470Z,0.00
2022-07-26T01:06:02.485Z,0.00
2022-07-26T01:07:02.461Z,0.00
2022-07-26T01:08:02.464Z,0.00
2022-07-26T01:09:02.476Z,0.00
2022-07-26T01:10:02.470Z,0.00
2022-07-26T01:11:02.481Z,0.00
2022-07-26T01:12:02.474Z,0.00
2022-07-26T01:13:02.502Z,0.00
2022-07-26T01:14:02.472Z,0.00
2022-07-26T01:15:02.485Z,0.00
2022-07-26T01:16:02.517Z,0.00
2022-07-26T01:17:02.484Z,0.00
2022-07-26T01:18:02.488Z,0.00
2022-07-26T01:19:02.480Z,0.00
2022-07-26T01:20:02.487Z,0.00
2022-07-26T01:21:13.466Z,0.00
2022-07-26T01:22:02.492Z,0.00
2022-07-26T01:23:02.492Z,0.00
2022-07-26T01:24:02.506Z,0.00
2022-07-26T01:25:02.498Z,0.00
2022-07-26T01:26:02.503Z,0.00
2022-07-26T01:27:02.497Z,0.00
2022-07-26T01:28:02.502Z,0.00
2022-07-26T01:29:02.503Z,0.00
2022-07-26T01:30:02.504Z,0.00
2022-07-26T01:31:02.560Z,0.00
2022-07-26T01:32:02.513Z,0.00
2022-07-26T01:33:02.515Z,0.00
2022-07-26T01:34:02.518Z,0.00
2022-07-26T01:35:02.514Z,0.00
2022-07-26T01:36:02.517Z,0.00
2022-07-26T01:37:02.540Z,0.00
2022-07-26T01:38:02.517Z,0.00
2022-07-26T01:39:02.527Z,0.00
2022-07-26T01:40:02.542Z,0.00
2022-07-26T01:41:02.540Z,0.00
2022-07-26T01:42:02.529Z,0.00
2022-07-26T01:43:02.539Z,0.00
2022-07-26T01:44:02.545Z,0.00
2022-07-26T01:45:02.547Z,0.00
2022-07-26T01:46:02.627Z,0.00
2022-07-26T01:47:02.541Z,0.00
2022-07-26T01:48:02.542Z,0.00
2022-07-26T01:49:02.745Z,0.00
2022-07-26T01:50:02.541Z,0.00
2022-07-26T01:51:02.546Z,0.00
2022-07-26T01:52:02.560Z,0.00
2022-07-26T01:53:02.581Z,0.00
2022-07-26T01:54:02.549Z,0.00
2022-07-26T01:55:02.557Z,0.00
2022-07-26T01:56:02.555Z,0.00
2022-07-26T01:57:02.552Z,0.00
2022-07-26T01:58:02.563Z,0.00
2022-07-26T01:59:02.566Z,0.00
2022-07-26T02:00:02.562Z,0.00
2022-07-26T02:01:02.567Z,0.00
2022-07-26T02:02:02.734Z,0.00
2022-07-26T02:03:02.662Z,0.00
2022-07-26T02:04:02.568Z,0.00
2022-07-26T02:05:02.573Z,0.00
2022-07-26T02:06:02.569Z,0.00
2022-07-26T02:07:05.309Z,0.00
2022-07-26T02:08:02.573Z,0.00
2022-07-26T02:09:02.605Z,0.00
2022-07-26T02:10:02.577Z,0.00
2022-07-26T02:11:03.575Z,0.00
2022-07-26T02:12:02.584Z,0.00
2022-07-26T02:13:02.591Z,0.00
2022-07-26T02:14:02.594Z,0.00
2022-07-26T02:15:02.609Z,0.00
2022-07-26T02:16:02.644Z,0.00
2022-07-26T02:17:02.596Z,0.00
2022-07-26T02:18:02.599Z,0.00
2022-07-26T02:19:02.601Z,0.00
2022-07-26T02:20:02.605Z,0.00
2022-07-26T02:21:02.625Z,0.00
2022-07-26T02:22:02.600Z,0.00
2022-07-26T02:23:02.597Z,0.00
2022-07-26T02:24:02.601Z,0.00
2022-07-26T02:25:05.311Z,0.00
2022-07-26T02:26:02.606Z,0.00
2022-07-26T02:27:02.611Z,0.00
2022-07-26T02:28:02.621Z,0.00
2022-07-26T02:29:02.608Z,0.00
2022-07-26T02:30:02.615Z,0.00
2022-07-26T02:31:02.756Z,0.00
2022-07-26T02:32:02.623Z,0.00
2022-07-26T02:33:02.628Z,0.00
2022-07-26T02:34:02.635Z,0.00
2022-07-26T02:35:02.633Z,0.00
2022-07-26T02:36:02.642Z,0.00
2022-07-26T02:37:02.631Z,0.00
2022-07-26T02:38:02.627Z,0.00
2022-07-26T02:39:02.627Z,0.00
2022-07-26T02:40:02.650Z,0.00
2022-07-26T02:41:02.644Z,0.00
2022-07-26T02:42:02.716Z,0.00
2022-07-26T02:43:02.709Z,0.00
2022-07-26T02:44:02.708Z,0.00
2022-07-26T02:45:02.653Z,0.00
2022-07-26T02:46:02.808Z,0.00
2022-07-26T02:47:02.651Z,0.00
2022-07-26T02:48:02.658Z,0.00
2022-07-26T02:49:02.697Z,0.00
2022-07-26T02:50:02.652Z,0.00
2022-07-26T02:51:02.659Z,0.00
2022-07-26T02:52:02.657Z,0.00
2022-07-26T02:53:02.667Z,0.00
2022-07-26T02:54:02.658Z,0.00
2022-07-26T02:55:02.668Z,0.00
2022-07-26T02:56:02.675Z,0.00
2022-07-26T02:57:02.665Z,0.00
2022-07-26T02:58:02.669Z,0.00
2022-07-26T02:59:02.662Z,0.00
2022-07-26T03:00:02.672Z,0.00
2022-07-26T03:01:02.673Z,0.00
2022-07-26T03:02:02.775Z,0.00
2022-07-26T03:03:02.723Z,0.00
2022-07-26T03:04:02.681Z,0.00
2022-07-26T03:05:02.689Z,0.00
2022-07-26T03:06:02.697Z,0.00
2022-07-26T03:07:02.691Z,0.00
2022-07-26T03:08:02.693Z,0.00
2022-07-26T03:09:02.691Z,0.00
2022-07-26T03:10:02.694Z,0.00
2022-07-26T03:11:02.692Z,0.00
2022-07-26T03:12:02.696Z,0.00
2022-07-26T03:13:02.691Z,0.00
2022-07-26T03:14:02.723Z,0.00
2022-07-26T03:15:02.700Z,0.00
2022-07-26T03:16:02.791Z,0.00
2022-07-26T03:17:02.705Z,0.00
2022-07-26T03:18:02.709Z,0.00
2022-07-26T03:19:02.704Z,0.00
2022-07-26T03:20:02.705Z,0.00
2022-07-26T03:21:02.708Z,0.00
2022-07-26T03:22:02.868Z,0.00
2022-07-26T03:23:02.704Z,0.00
2022-07-26T03:24:02.711Z,0.00
2022-07-26T03:25:02.715Z,0.00
2022-07-26T03:26:02.717Z,0.00
2022-07-26T03:27:02.720Z,0.00
2022-07-26T03:28:02.725Z,0.00
2022-07-26T03:29:02.739Z,0.00
2022-07-26T03:30:02.720Z,0.00
2022-07-26T03:31:02.809Z,0.00
2022-07-26T03:32:02.732Z,0.00
2022-07-26T03:33:02.732Z,0.00
2022-07-26T03:34:03.436Z,0.00
2022-07-26T03:35:02.751Z,0.00
2022-07-26T03:36:02.729Z,0.00
2022-07-26T03:37:02.746Z,0.00
2022-07-26T03:38:02.742Z,0.00
2022-07-26T03:39:02.745Z,0.00
2022-07-26T03:40:02.754Z,0.00
2022-07-26T03:41:02.750Z,0.00
2022-07-26T03:42:02.755Z,0.00
2022-07-26T03:43:02.946Z,0.00
2022-07-26T03:44:02.757Z,0.00
2022-07-26T03:45:02.760Z,0.00
2022-07-26T03:46:02.850Z,0.00
2022-07-26T03:47:02.749Z,0.00
2022-07-26T03:48:02.761Z,0.00
2022-07-26T03:49:02.898Z,0.00
2022-07-26T03:50:02.757Z,0.00
2022-07-26T03:51:02.763Z,0.00
2022-07-26T03:52:02.778Z,0.00
2022-07-26T03:53:02.757Z,0.00
2022-07-26T03:54:02.777Z,0.00
2022-07-26T03:55:02.767Z,0.00
2022-07-26T03:56:02.778Z,0.00
2022-07-26T03:57:02.775Z,0.00
2022-07-26T03:58:02.779Z,0.00
2022-07-26T03:59:02.786Z,0.00
2022-07-26T04:00:02.790Z,0.00
2022-07-26T04:01:02.864Z,0.00
2022-07-26T04:02:02.878Z,0.00
2022-07-26T04:03:02.829Z,0.00
2022-07-26T04:04:02.781Z,0.00
2022-07-26T04:05:02.783Z,0.00
2022-07-26T04:06:02.790Z,0.00
2022-07-26T04:07:03.136Z,0.00
2022-07-26T04:08:02.794Z,0.00
2022-07-26T04:09:02.804Z,0.00
2022-07-26T04:10:02.792Z,0.00
2022-07-26T04:11:02.796Z,0.00
2022-07-26T04:12:02.802Z,0.00
2022-07-26T04:13:02.807Z,0.00
2022-07-26T04:14:02.801Z,0.00
2022-07-26T04:15:02.799Z,0.00
2022-07-26T04:16:02.809Z,0.00
2022-07-26T04:17:02.885Z,0.00
2022-07-26T04:18:02.811Z,0.00
2022-07-26T04:19:02.880Z,0.00
2022-07-26T04:20:02.807Z,0.00
2022-07-26T04:21:02.810Z,0.00
2022-07-26T04:22:02.811Z,0.00
2022-07-26T04:23:02.820Z,0.00
2022-07-26T04:24:02.826Z,0.00
2022-07-26T04:25:02.829Z,0.00
2022-07-26T04:26:02.819Z,0.00
2022-07-26T04:27:02.822Z,0.00
2022-07-26T04:28:02.828Z,0.00
2022-07-26T04:29:02.833Z,0.00
2022-07-26T04:30:02.857Z,0.00
2022-07-26T04:31:02.885Z,0.00
2022-07-26T04:32:02.844Z,0.00
2022-07-26T04:33:02.845Z,0.00
2022-07-26T04:34:02.843Z,0.00
2022-07-26T04:35:02.847Z,0.00
2022-07-26T04:36:02.844Z,0.00
2022-07-26T04:37:02.962Z,0.00
2022-07-26T04:38:02.838Z,0.00
2022-07-26T04:39:02.843Z,0.00
2022-07-26T04:40:02.854Z,0.00
2022-07-26T04:41:02.858Z,0.00
2022-07-26T04:42:02.853Z,0.00
2022-07-26T04:43:02.871Z,0.00
2022-07-26T04:44:02.851Z,0.00
2022-07-26T04:45:07.744Z,0.00
2022-07-26T04:46:02.959Z,0.00
2022-07-26T04:47:02.863Z,0.00
2022-07-26T04:48:02.861Z,0.00
2022-07-26T04:49:02.969Z,0.00
2022-07-26T04:50:02.864Z,0.00
2022-07-26T04:51:02.869Z,0.00
2022-07-26T04:52:02.872Z,0.00
2022-07-26T04:53:02.886Z,0.00
2022-07-26T04:54:02.879Z,0.00
2022-07-26T04:55:02.897Z,0.00
2022-07-26T04:56:02.888Z,0.00
2022-07-26T04:57:02.875Z,0.00
2022-07-26T04:58:02.886Z,0.00
2022-07-26T04:59:02.888Z,0.00
2022-07-26T05:00:20.674Z,0.00
2022-07-26T05:01:09.904Z,0.00
2022-07-26T05:02:03.091Z,0.00
2022-07-26T05:03:02.967Z,5.63
2022-07-26T05:04:02.897Z,5.63
2022-07-26T05:05:02.894Z,5.63
2022-07-26T05:06:02.890Z,5.63
2022-07-26T05:07:02.895Z,5.63
2022-07-26T05:08:02.892Z,0.00
2022-07-26T05:09:02.899Z,0.00
2022-07-26T05:10:02.911Z,0.00
2022-07-26T05:11:02.898Z,5.63
2022-07-26T05:12:02.913Z,5.63
2022-07-26T05:13:02.908Z,5.63
2022-07-26T05:14:02.914Z,5.63
2022-07-26T05:15:04.452Z,5.63
2022-07-26T05:16:02.929Z,5.63
2022-07-26T05:17:08.692Z,5.63
2022-07-26T05:18:06.798Z,5.63
2022-07-26T05:19:02.917Z,5.63
2022-07-26T05:20:03.550Z,5.63
2022-07-26T05:21:02.923Z,5.63
2022-07-26T05:22:02.915Z,5.63
2022-07-26T05:23:02.926Z,5.63
2022-07-26T05:24:02.925Z,5.63
2022-07-26T05:25:02.931Z,5.63
2022-07-26T05:26:02.922Z,5.63
2022-07-26T05:27:02.934Z,5.63
2022-07-26T05:28:02.930Z,5.63
2022-07-26T05:29:02.942Z,5.63
2022-07-26T05:30:02.936Z,5.63
2022-07-26T05:31:03.055Z,5.63
2022-07-26T05:32:02.958Z,5.63
2022-07-26T05:33:02.946Z,5.63
2022-07-26T05:34:02.939Z,5.63
2022-07-26T05:35:02.939Z,5.63
2022-07-26T05:36:02.946Z,5.63
2022-07-26T05:37:02.944Z,5.63
2022-07-26T05:38:02.947Z,5.63
2022-07-26T05:39:02.945Z,5.63
2022-07-26T05:40:02.976Z,5.63
2022-07-26T05:41:02.952Z,5.63
2022-07-26T05:42:02.956Z,5.63
2022-07-26T05:43:02.956Z,5.63
2022-07-26T05:44:02.960Z,5.63
2022-07-26T05:45:02.968Z,5.63
2022-07-26T05:46:06.633Z,5.63
2022-07-26T05:47:02.974Z,5.63
2022-07-26T05:48:02.963Z,5.63
2022-07-26T05:49:03.076Z,5.63
2022-07-26T05:50:02.977Z,5.63
2022-07-26T05:51:02.971Z,5.63
2022-07-26T05:52:02.975Z,5.63
2022-07-26T05:53:02.974Z,0.00
2022-07-26T05:54:02.979Z,0.00
2022-07-26T05:55:02.989Z,0.00
2022-07-26T05:56:02.994Z,0.00
2022-07-26T05:57:02.993Z,0.00
2022-07-26T05:58:02.981Z,0.00
2022-07-26T05:59:02.984Z,0.00
2022-07-26T06:00:02.993Z,0.00
2022-07-26T06:01:02.996Z,5.63
2022-07-26T06:02:03.124Z,0.00
2022-07-26T06:03:03.005Z,0.00
2022-07-26T06:04:03.101Z,0.00
2022-07-26T06:05:03.003Z,0.00
2022-07-26T06:06:03.006Z,0.00
2022-07-26T06:07:03.000Z,0.00
2022-07-26T06:08:03.019Z,0.00
2022-07-26T06:09:03.013Z,0.00
2022-07-26T06:10:03.027Z,0.00
2022-07-26T06:11:03.022Z,0.00
2022-07-26T06:12:03.033Z,0.00
2022-07-26T06:13:03.016Z,0.00
2022-07-26T06:14:03.035Z,0.00
2022-07-26T06:15:03.018Z,0.00
2022-07-26T06:16:03.016Z,0.00
2022-07-26T06:17:03.100Z,0.00
2022-07-26T06:18:03.017Z,0.00
2022-07-26T06:19:03.018Z,0.00
2022-07-26T06:20:03.037Z,0.00
2022-07-26T06:21:03.038Z,0.00
2022-07-26T06:22:03.027Z,0.00
2022-07-26T06:23:03.034Z,0.00
2022-07-26T06:24:03.030Z,0.00
2022-07-26T06:25:03.031Z,0.00
2022-07-26T06:26:03.039Z,0.00
2022-07-26T06:27:05.301Z,0.00
2022-07-26T06:28:03.044Z,0.00
2022-07-26T06:29:03.042Z,0.00
2022-07-26T06:30:03.043Z,0.00
2022-07-26T06:31:03.057Z,0.00
2022-07-26T06:32:03.127Z,0.00
2022-07-26T06:33:03.048Z,0.00
2022-07-26T06:34:03.055Z,0.00
2022-07-26T06:35:03.054Z,0.00
2022-07-26T06:36:03.050Z,0.00
2022-07-26T06:37:03.058Z,0.00
2022-07-26T06:38:03.071Z,0.00
2022-07-26T06:39:03.067Z,0.00
2022-07-26T06:40:03.070Z,0.00
2022-07-26T06:41:03.068Z,0.00
2022-07-26T06:42:03.069Z,5.63
2022-07-26T06:43:04.728Z,5.63
2022-07-26T06:44:03.073Z,5.63
2022-07-26T06:45:03.073Z,0.00
2022-07-26T06:46:03.164Z,0.00
2022-07-26T06:47:03.070Z,0.00
2022-07-26T06:48:03.080Z,0.00
2022-07-26T06:49:03.139Z,5.63
2022-07-26T06:50:03.078Z,5.63
2022-07-26T06:51:03.087Z,5.63
2022-07-26T06:52:03.084Z,5.63
2022-07-26T06:53:03.084Z,5.63
2022-07-26T06:54:03.083Z,5.63
2022-07-26T06:55:03.094Z,5.63
2022-07-26T06:56:03.089Z,5.63
2022-07-26T06:57:03.091Z,5.63
2022-07-26T06:58:03.096Z,5.63
2022-07-26T06:59:07.597Z,5.63
2022-07-26T07:00:03.099Z,5.63
2022-07-26T07:01:03.203Z,5.63
2022-07-26T07:02:03.206Z,5.63
2022-07-26T07:03:03.107Z,5.63
2022-07-26T07:04:03.103Z,5.63
2022-07-26T07:05:03.277Z,5.63
2022-07-26T07:06:03.109Z,11.25
2022-07-26T07:07:05.191Z,5.63
2022-07-26T07:08:03.108Z,11.25
2022-07-26T07:09:03.115Z,11.25
2022-07-26T07:10:03.138Z,11.25
2022-07-26T07:11:03.125Z,11.25
2022-07-26T07:12:09.790Z,11.25
2022-07-26T07:13:03.119Z,11.25
2022-07-26T07:14:03.128Z,5.63
2022-07-26T07:15:03.123Z,11.25
2022-07-26T07:16:03.191Z,11.25
2022-07-26T07:17:03.125Z,5.63
2022-07-26T07:18:03.137Z,5.63
2022-07-26T07:19:03.134Z,11.25
2022-07-26T07:20:03.152Z,11.25
2022-07-26T07:21:03.141Z,11.25
2022-07-26T07:22:03.143Z,5.63
2022-07-26T07:23:03.137Z,5.63
2022-07-26T07:24:03.152Z,5.63
2022-07-26T07:25:03.183Z,11.25
2022-07-26T07:26:03.138Z,11.25
2022-07-26T07:27:03.156Z,16.88
2022-07-26T07:28:03.159Z,16.88
2022-07-26T07:29:04.264Z,11.25
2022-07-26T07:30:03.156Z,11.25
2022-07-26T07:31:03.877Z,11.25
2022-07-26T07:32:03.373Z,16.88
2022-07-26T07:33:03.583Z,22.50
2022-07-26T07:34:03.899Z,22.50
2022-07-26T07:35:03.175Z,16.88
2022-07-26T07:36:03.166Z,16.88
2022-07-26T07:37:03.177Z,16.88
2022-07-26T07:38:03.166Z,22.50
2022-07-26T07:39:06.332Z,22.50
2022-07-26T07:40:03.171Z,45.00
2022-07-26T07:41:03.173Z,50.63
2022-07-26T07:42:03.180Z,56.25
2022-07-26T07:43:03.170Z,39.38
2022-07-26T07:44:03.180Z,33.75
2022-07-26T07:45:03.183Z,28.13
2022-07-26T07:46:03.172Z,22.50
2022-07-26T07:47:03.238Z,22.50
2022-07-26T07:48:03.180Z,28.13
2022-07-26T07:49:03.223Z,22.50
2022-07-26T07:50:03.193Z,16.88
2022-07-26T07:51:03.185Z,16.88
2022-07-26T07:52:03.200Z,22.50
2022-07-26T07:53:03.207Z,22.50
2022-07-26T07:54:05.618Z,22.50
2022-07-26T07:55:21.906Z,28.13
2022-07-26T07:56:03.192Z,22.50
2022-07-26T07:57:03.208Z,22.50
2022-07-26T07:58:03.207Z,28.13
2022-07-26T07:59:03.223Z,22.50
2022-07-26T08:00:03.209Z,28.13
2022-07-26T08:01:03.247Z,22.50
2022-07-26T08:02:03.220Z,22.50
2022-07-26T08:03:03.219Z,28.13
2022-07-26T08:04:03.312Z,22.50
2022-07-26T08:05:04.982Z,22.50
2022-07-26T08:06:03.218Z,22.50
2022-07-26T08:07:03.221Z,16.88
2022-07-26T08:08:03.224Z,16.88
2022-07-26T08:09:03.843Z,28.13
2022-07-26T08:10:03.227Z,33.75
2022-07-26T08:11:03.229Z,22.50
2022-07-26T08:12:03.222Z,22.50
2022-07-26T08:13:03.237Z,22.50
2022-07-26T08:14:03.237Z,28.13
2022-07-26T08:15:07.488Z,22.50
2022-07-26T08:16:03.256Z,16.88
2022-07-26T08:17:03.237Z,11.25
2022-07-26T08:18:03.240Z,5.63
2022-07-26T08:19:03.254Z,5.63
2022-07-26T08:20:03.243Z,5.63
2022-07-26T08:21:03.248Z,5.63
2022-07-26T08:22:03.301Z,5.63
2022-07-26T08:23:03.255Z,11.25
2022-07-26T08:24:03.262Z,5.63
2022-07-26T08:25:03.266Z,11.25
2022-07-26T08:26:06.818Z,11.25
2022-07-26T08:27:03.258Z,11.25
2022-07-26T08:28:03.959Z,11.25
2022-07-26T08:29:03.263Z,11.25
2022-07-26T08:30:03.266Z,16.88
2022-07-26T08:31:03.366Z,28.13
2022-07-26T08:32:03.364Z,28.13
2022-07-26T08:33:03.269Z,16.88
2022-07-26T08:34:03.268Z,16.88
2022-07-26T08:35:17.031Z,16.88
2022-07-26T08:36:03.272Z,28.13
2022-07-26T08:37:18.520Z,33.75
2022-07-26T08:38:47.568Z,56.25
2022-07-26T08:39:45.158Z,61.88
2022-07-26T08:40:45.154Z,151.88
2022-07-26T08:41:45.165Z,33.75
2022-07-26T08:42:49.340Z,28.13
2022-07-26T08:43:52.260Z,39.38
2022-07-26T08:44:45.175Z,39.38
2022-07-26T08:45:45.157Z,39.38
2022-07-26T08:46:45.276Z,39.38
2022-07-26T08:48:07.483Z,45.00
2022-07-26T08:48:45.254Z,39.38
2022-07-26T08:49:45.177Z,45.00
2022-07-26T08:50:45.176Z,39.38
2022-07-26T08:51:45.178Z,16.88
2022-07-26T08:52:45.185Z,11.25
2022-07-26T08:53:45.180Z,11.25
2022-07-26T08:54:45.193Z,11.25
2022-07-26T08:56:06.069Z,16.88
2022-07-26T08:56:45.178Z,22.50
2022-07-26T08:57:45.181Z,22.50
2022-07-26T08:58:45.241Z,22.50
2022-07-26T08:59:45.194Z,106.88
2022-07-26T09:00:45.238Z,61.88
2022-07-26T09:01:45.189Z,73.13
2022-07-26T09:02:45.190Z,73.13
2022-07-26T09:03:45.367Z,95.63
2022-07-26T09:04:45.258Z,61.88
2022-07-26T09:05:45.206Z,45.00
2022-07-26T09:06:45.199Z,45.00
2022-07-26T09:07:45.207Z,39.38
2022-07-26T09:08:45.211Z,33.75
2022-07-26T09:09:45.209Z,28.13
2022-07-26T09:10:45.212Z,39.38
2022-07-26T09:11:45.211Z,45.00
2022-07-26T09:12:45.209Z,56.25
2022-07-26T09:13:45.216Z,50.63
2022-07-26T09:14:45.218Z,73.13
2022-07-26T09:15:45.279Z,78.75
2022-07-26T09:16:45.258Z,78.75
2022-07-26T09:17:45.229Z,78.75
2022-07-26T09:18:45.239Z,78.75
2022-07-26T09:19:45.229Z,67.50
2022-07-26T09:20:45.232Z,56.25
2022-07-26T09:21:45.237Z,33.75
2022-07-26T09:22:45.232Z,45.00
2022-07-26T09:23:45.229Z,45.00
2022-07-26T09:24:45.245Z,33.75
2022-07-26T09:25:45.242Z,39.38
2022-07-26T09:26:45.239Z,39.38
2022-07-26T09:27:45.246Z,67.50
2022-07-26T09:28:45.383Z,56.25
2022-07-26T09:29:45.250Z,45.00
2022-07-26T09:30:45.248Z,61.88
2022-07-26T09:31:45.391Z,73.13
2022-07-26T09:32:45.258Z,61.88
2022-07-26T09:33:45.260Z,56.25
2022-07-26T09:34:52.720Z,45.00
2022-07-26T09:35:49.714Z,39.38
2022-07-26T09:36:45.264Z,39.38
2022-07-26T09:37:45.265Z,39.38
2022-07-26T09:38:45.278Z,33.75
2022-07-26T09:39:45.263Z,33.75
2022-07-26T09:40:46.872Z,28.13
2022-07-26T09:41:45.269Z,28.13
2022-07-26T09:42:45.280Z,28.13
2022-07-26T09:43:48.061Z,33.75
2022-07-26T09:44:48.022Z,39.38
2022-07-26T09:45:45.289Z,28.13
2022-07-26T09:46:45.386Z,22.50
2022-07-26T09:47:45.291Z,16.88
2022-07-26T09:49:09.345Z,28.13
2022-07-26T09:49:45.357Z,33.75
2022-07-26T09:50:45.285Z,33.75
2022-07-26T09:51:45.292Z,33.75
2022-07-26T09:52:45.291Z,50.63
2022-07-26T09:53:45.298Z,56.25
2022-07-26T09:54:45.300Z,50.63
2022-07-26T09:55:45.443Z,39.38
2022-07-26T09:56:45.339Z,39.38
2022-07-26T09:57:45.301Z,28.13
2022-07-26T09:58:45.304Z,33.75
2022-07-26T09:59:45.311Z,39.38
2022-07-26T10:00:45.305Z,45.00
2022-07-26T10:01:45.389Z,56.25
2022-07-26T10:02:45.368Z,56.25
2022-07-26T10:03:45.318Z,50.63
2022-07-26T10:04:45.332Z,45.00
2022-07-26T10:05:45.326Z,45.00
2022-07-26T10:06:45.329Z,45.00
2022-07-26T10:07:45.327Z,39.38
2022-07-26T10:08:45.357Z,33.75
2022-07-26T10:09:45.332Z,39.38
2022-07-26T10:10:45.334Z,45.00
2022-07-26T10:11:45.334Z,39.38
2022-07-26T10:12:45.334Z,45.00
2022-07-26T10:13:45.341Z,45.00
2022-07-26T10:14:45.333Z,39.38
2022-07-26T10:15:46.720Z,39.38
2022-07-26T10:16:45.347Z,50.63
2022-07-26T10:17:45.337Z,50.63
2022-07-26T10:18:45.340Z,45.00
2022-07-26T10:19:47.482Z,39.38
2022-07-26T10:20:45.344Z,45.00
2022-07-26T10:21:45.356Z,45.00
2022-07-26T10:22:45.356Z,50.63
2022-07-26T10:23:45.360Z,50.63
2022-07-26T10:24:45.360Z,50.63
2022-07-26T10:25:45.359Z,45.00
2022-07-26T10:26:45.361Z,45.00
2022-07-26T10:27:45.365Z,50.63
2022-07-26T10:28:45.359Z,39.38
2022-07-26T10:29:45.364Z,28.13
2022-07-26T10:30:45.372Z,33.75
2022-07-26T10:31:45.472Z,33.75
2022-07-26T10:32:45.377Z,28.13
2022-07-26T10:33:45.378Z,28.13
2022-07-26T10:34:45.379Z,28.13
2022-07-26T10:35:45.371Z,22.50
2022-07-26T10:36:45.393Z,28.13
2022-07-26T10:37:45.378Z,28.13
2022-07-26T10:38:45.387Z,22.50
2022-07-26T10:39:45.398Z,22.50
2022-07-26T10:40:45.388Z,22.50
2022-07-26T10:41:45.384Z,22.50
2022-07-26T10:42:45.387Z,22.50
2022-07-26T10:43:45.394Z,22.50
2022-07-26T10:44:45.423Z,22.50
2022-07-26T10:45:45.395Z,22.50
2022-07-26T10:46:45.421Z,22.50
2022-07-26T10:47:45.403Z,22.50
2022-07-26T10:48:45.459Z,22.50
2022-07-26T10:49:45.408Z,22.50
2022-07-26T10:50:45.404Z,22.50
2022-07-26T10:51:45.412Z,16.88
2022-07-26T10:52:45.415Z,22.50
2022-07-26T10:53:45.429Z,16.88
2022-07-26T10:54:45.418Z,16.88
2022-07-26T10:55:45.419Z,16.88
2022-07-26T10:56:45.420Z,16.88
2022-07-26T10:57:45.423Z,22.50
2022-07-26T10:58:45.420Z,22.50
2022-07-26T10:59:55.774Z,22.50
2022-07-26T11:00:45.421Z,22.50
2022-07-26T11:01:45.526Z,22.50
2022-07-26T11:02:45.455Z,22.50
2022-07-26T11:03:45.430Z,28.13
2022-07-26T11:04:45.447Z,28.13
2022-07-26T11:05:45.455Z,28.13
2022-07-26T11:06:45.442Z,28.13
2022-07-26T11:07:45.455Z,28.13
2022-07-26T11:08:48.157Z,28.13
2022-07-26T11:09:45.439Z,28.13
2022-07-26T11:10:45.444Z,22.50
2022-07-26T11:11:46.969Z,22.50
2022-07-26T11:12:45.448Z,22.50
2022-07-26T11:13:45.456Z,22.50
2022-07-26T11:14:48.377Z,22.50
2022-07-26T11:15:45.525Z,28.13
2022-07-26T11:16:45.458Z,28.13
2022-07-26T11:17:45.466Z,28.13
2022-07-26T11:18:45.472Z,28.13
2022-07-26T11:19:45.466Z,22.50
2022-07-26T11:20:45.460Z,28.13
2022-07-26T11:21:45.468Z,22.50
2022-07-26T11:22:45.475Z,22.50
2022-07-26T11:23:45.484Z,22.50
2022-07-26T11:24:45.481Z,16.88
2022-07-26T11:25:45.479Z,16.88
2022-07-26T11:26:45.482Z,22.50
2022-07-26T11:27:45.488Z,16.88
2022-07-26T11:28:45.481Z,16.88
2022-07-26T11:29:49.194Z,16.88
2022-07-26T11:30:45.585Z,16.88
2022-07-26T11:31:50.555Z,22.50
2022-07-26T11:32:45.486Z,22.50
2022-07-26T11:33:45.489Z,22.50
2022-07-26T11:34:45.627Z,22.50
2022-07-26T11:35:45.503Z,22.50
2022-07-26T11:36:45.517Z,16.88
2022-07-26T11:37:45.501Z,16.88
2022-07-26T11:38:45.504Z,16.88
2022-07-26T11:39:45.497Z,11.25
2022-07-26T11:40:45.506Z,11.25
2022-07-26T11:41:45.511Z,11.25
2022-07-26T11:42:45.525Z,11.25
2022-07-26T11:43:45.510Z,5.63
2022-07-26T11:44:45.517Z,5.63
2022-07-26T11:45:45.523Z,5.63
2022-07-26T11:46:45.582Z,5.63
2022-07-26T11:47:45.517Z,5.63
2022-07-26T11:48:45.586Z,5.63
2022-07-26T11:50:00.262Z,5.63
2022-07-26T11:50:45.530Z,5.63
2022-07-26T11:51:45.538Z,5.63
2022-07-26T11:52:45.530Z,5.63
2022-07-26T11:53:45.535Z,5.63
2022-07-26T11:54:45.533Z,5.63
2022-07-26T11:55:47.489Z,5.63
2022-07-26T11:56:45.545Z,5.63
2022-07-26T11:57:45.544Z,5.63
2022-07-26T11:58:45.560Z,5.63
2022-07-26T11:59:45.559Z,5.63
2022-07-26T12:00:45.553Z,5.63
2022-07-26T12:01:49.806Z,5.63
2022-07-26T12:02:45.550Z,5.63
2022-07-26T12:03:45.574Z,5.63
2022-07-26T12:04:45.710Z,5.63
2022-07-26T12:05:45.637Z,5.63
2022-07-26T12:06:45.560Z,5.63
2022-07-26T12:07:45.555Z,5.63
2022-07-26T12:08:45.563Z,5.63
2022-07-26T12:09:45.568Z,5.63
2022-07-26T12:10:45.579Z,5.63
2022-07-26T12:11:45.571Z,11.25
2022-07-26T12:12:45.570Z,11.25
2022-07-26T12:13:55.328Z,11.25
2022-07-26T12:14:45.575Z,11.25
2022-07-26T12:15:45.676Z,11.25
2022-07-26T12:16:45.584Z,11.25
2022-07-26T12:17:45.585Z,11.25
2022-07-26T12:18:45.596Z,11.25
2022-07-26T12:19:45.586Z,16.88
2022-07-26T12:20:45.584Z,16.88
2022-07-26T12:21:45.586Z,16.88
2022-07-26T12:22:45.602Z,16.88
2022-07-26T12:23:45.588Z,16.88
2022-07-26T12:24:45.594Z,16.88
2022-07-26T12:25:49.215Z,16.88
2022-07-26T12:26:45.598Z,16.88
2022-07-26T12:27:45.604Z,11.25
2022-07-26T12:28:45.595Z,11.25
2022-07-26T12:29:45.608Z,11.25
2022-07-26T12:30:45.680Z,11.25
2022-07-26T12:31:45.609Z,11.25
2022-07-26T12:32:45.601Z,11.25
2022-07-26T12:33:45.615Z,16.88
2022-07-26T12:34:45.864Z,16.88
2022-07-26T12:35:45.620Z,16.88
2022-07-26T12:36:45.613Z,16.88
2022-07-26T12:37:45.622Z,22.50
2022-07-26T12:38:45.619Z,22.50
2022-07-26T12:39:45.628Z,16.88
2022-07-26T12:40:45.630Z,16.88
2022-07-26T12:41:45.634Z,22.50
2022-07-26T12:42:45.634Z,22.50
2022-07-26T12:43:49.148Z,28.13
2022-07-26T12:44:45.634Z,33.75
2022-07-26T12:45:45.674Z,33.75
2022-07-26T12:46:45.839Z,33.75
2022-07-26T12:47:45.660Z,33.75
2022-07-26T12:48:45.710Z,33.75
2022-07-26T12:49:45.657Z,33.75
2022-07-26T12:50:45.647Z,33.75
2022-07-26T12:51:45.662Z,39.38
2022-07-26T12:52:45.652Z,39.38
2022-07-26T12:53:45.647Z,33.75
2022-07-26T12:54:45.648Z,33.75
2022-07-26T12:55:45.660Z,33.75
2022-07-26T12:56:46.376Z,28.13
2022-07-26T12:57:47.397Z,28.13
2022-07-26T12:58:45.667Z,22.50
2022-07-26T12:59:45.676Z,22.50
2022-07-26T13:00:45.674Z,22.50
2022-07-26T13:01:45.723Z,22.50
2022-07-26T13:02:45.667Z,22.50
2022-07-26T13:03:45.671Z,22.50
2022-07-26T13:04:45.766Z,22.50
2022-07-26T13:05:45.687Z,22.50
2022-07-26T13:06:45.682Z,22.50
2022-07-26T13:07:45.679Z,28.13